Time;durP1;ratioP1;P1;durP2;ratioP2;P2;SDS_P1;SDS_P2;PMS_P1;PMS_P2;Temp;Humidity;BMP_temperature;BMP_pressure;BME280_temperature;BME280_humidity;BME280_pressure;Samples;Min_cycle;Max_cycle;Signal;HPM_P1;HPM_P2
2023/03/08 00:01:28;;;;;;;5.37;3.77;;;0.90;99.90;;;;;;5016091;28;20270;-81
2023/03/08 00:03:55;;;;;;;4.53;3.77;;;0.80;99.90;;;;;;5017208;28;20217;-81
2023/03/08 00:06:22;;;;;;;5.00;3.63;;;0.90;99.90;;;;;;5015249;28;20209;-82
2023/03/08 00:08:48;;;;;;;6.37;4.23;;;0.90;99.90;;;;;;5015223;28;20521;-80
2023/03/08 00:11:15;;;;;;;6.93;4.37;;;0.90;99.90;;;;;;5015493;28;20178;-81
2023/03/08 00:13:40;;;;;;;6.83;4.40;;;0.90;99.90;;;;;;5015878;28;20262;-81
2023/03/08 00:16:09;;;;;;;9.57;4.50;;;0.90;99.90;;;;;;5015903;28;20269;-81
2023/03/08 00:18:35;;;;;;;11.10;4.93;;;0.90;99.90;;;;;;5015449;28;20183;-82
2023/03/08 00:21:04;;;;;;;6.40;4.20;;;0.90;99.90;;;;;;5014626;28;20181;-80
2023/03/08 00:23:30;;;;;;;5.17;4.10;;;0.90;99.90;;;;;;5015208;28;20182;-81
2023/03/08 00:25:57;;;;;;;6.60;4.93;;;0.80;99.90;;;;;;5015282;28;20278;-81
2023/03/08 00:28:23;;;;;;;8.03;5.20;;;0.80;99.90;;;;;;5017097;28;20175;-81
2023/03/08 00:31:03;;;;;;;6.70;4.73;;;0.90;99.90;;;;;;5016293;28;20650;-81
2023/03/08 00:33:29;;;;;;;6.17;4.73;;;0.90;99.90;;;;;;5014765;28;20235;-82
2023/03/08 00:36:02;;;;;;;8.67;5.30;;;0.90;99.90;;;;;;5015113;28;20181;-82
2023/03/08 00:38:30;;;;;;;7.37;5.50;;;0.90;99.90;;;;;;5015575;28;20253;-81
2023/03/08 00:40:56;;;;;;;9.50;5.73;;;0.90;99.90;;;;;;5015110;28;20179;-81
2023/03/08 00:43:22;;;;;;;10.50;5.60;;;0.90;99.90;;;;;;5016100;28;20175;-80
2023/03/08 00:45:47;;;;;;;7.80;5.53;;;0.90;99.90;;;;;;5014390;28;20220;-81
2023/03/08 00:48:13;;;;;;;9.07;6.20;;;0.90;99.90;;;;;;5014935;28;20238;-81
2023/03/08 00:50:39;;;;;;;8.40;6.23;;;0.90;99.90;;;;;;5015104;28;20203;-81
2023/03/08 00:53:04;;;;;;;8.47;5.67;;;0.90;99.90;;;;;;5015160;28;20183;-81
2023/03/08 00:55:30;;;;;;;9.27;6.50;;;0.90;99.90;;;;;;5014791;28;20187;-80
2023/03/08 00:57:56;;;;;;;9.13;6.60;;;0.90;99.90;;;;;;5013844;28;20175;-80
2023/03/08 01:00:21;;;;;;;11.83;7.00;;;1.00;99.90;;;;;;5013923;28;20627;-81
2023/03/08 01:02:47;;;;;;;14.23;6.60;;;1.00;99.90;;;;;;5016198;28;20253;-80
2023/03/08 01:05:13;;;;;;;10.03;6.77;;;1.00;99.90;;;;;;5014665;28;20238;-81
2023/03/08 01:07:39;;;;;;;10.03;6.67;;;1.00;99.90;;;;;;5014958;28;20219;-81
2023/03/08 01:10:05;;;;;;;10.87;7.00;;;1.00;99.90;;;;;;5014910;28;20913;-81
2023/03/08 01:12:35;;;;;;;9.23;6.27;;;1.00;99.90;;;;;;5013981;28;20186;-81
2023/03/08 01:15:02;;;;;;;11.60;7.03;;;1.00;99.90;;;;;;5014775;28;20206;-81
2023/03/08 01:17:27;;;;;;;13.53;7.33;;;1.00;99.90;;;;;;5016176;28;20185;-81
2023/03/08 01:19:53;;;;;;;13.80;6.97;;;1.00;99.90;;;;;;5013971;28;20179;-81
2023/03/08 01:22:19;;;;;;;9.73;6.80;;;1.00;99.90;;;;;;5014635;28;20539;-80
2023/03/08 01:24:46;;;;;;;9.13;6.67;;;1.00;99.90;;;;;;5013268;28;20239;-80
2023/03/08 01:27:12;;;;;;;10.93;6.73;;;1.00;99.90;;;;;;5030654;28;20244;-80
2023/03/08 01:29:38;;;;;;;10.43;7.27;;;1.00;99.90;;;;;;5030821;28;20233;-81
2023/03/08 01:32:04;;;;;;;10.67;7.47;;;1.00;99.90;;;;;;5015548;28;20179;-81
2023/03/08 01:34:29;;;;;;;9.37;6.87;;;1.00;99.90;;;;;;5028055;28;20190;-81
2023/03/08 01:36:55;;;;;;;9.30;6.73;;;1.00;99.90;;;;;;5013114;28;20181;-81
2023/03/08 01:39:21;;;;;;;10.03;7.33;;;0.90;99.90;;;;;;5000357;28;20320;-80
2023/03/08 01:41:47;;;;;;;9.97;7.27;;;1.00;99.90;;;;;;5013827;28;20617;-81
2023/03/08 01:44:18;;;;;;;10.20;7.23;;;1.00;99.90;;;;;;5013855;28;20191;-81
2023/03/08 01:46:43;;;;;;;10.17;7.03;;;0.90;99.90;;;;;;5014161;28;20192;-81
2023/03/08 01:49:24;;;;;;;11.03;7.00;;;0.90;99.90;;;;;;5013923;28;20198;-80
2023/03/08 01:52:05;;;;;;;8.60;6.27;;;0.90;99.90;;;;;;5014605;28;20164;-81
2023/03/08 01:54:42;;;;;;;10.07;6.97;;;1.00;99.90;;;;;;5014622;28;20207;-80
2023/03/08 01:57:22;;;;;;;9.43;6.00;;;1.00;99.90;;;;;;5012916;28;20179;-81
2023/03/08 01:59:50;;;;;;;9.13;6.00;;;1.10;99.90;;;;;;5005639;28;20541;-81
2023/03/08 02:02:23;;;;;;;7.93;5.50;;;1.00;99.90;;;;;;5004257;28;20206;-80
2023/03/08 02:04:49;;;;;;;9.50;6.20;;;0.90;99.90;;;;;;5029242;28;20239;-80
2023/03/08 02:07:15;;;;;;;8.27;5.60;;;1.00;99.90;;;;;;5014096;28;20489;-80
2023/03/08 02:09:41;;;;;;;14.90;6.13;;;1.00;99.90;;;;;;5029783;28;20274;-81
2023/03/08 02:12:11;;;;;;;9.97;6.00;;;0.90;99.90;;;;;;5005573;28;20183;-80
2023/03/08 02:14:37;;;;;;;8.57;5.80;;;0.90;99.90;;;;;;5013606;28;20253;-81
2023/03/08 02:17:02;;;;;;;9.63;5.43;;;0.90;99.90;;;;;;5012294;28;20622;-80
2023/03/08 02:19:48;;;;;;;11.50;6.20;;;1.00;99.90;;;;;;5012791;28;20179;-81
2023/03/08 02:22:15;;;;;;;9.23;5.70;;;0.90;99.90;;;;;;5001853;28;20567;-81
2023/03/08 02:24:41;;;;;;;9.57;5.90;;;0.90;99.90;;;;;;5011773;28;20210;-81
2023/03/08 02:27:13;;;;;;;9.57;5.93;;;0.90;99.90;;;;;;5013513;28;20188;-80
2023/03/08 02:29:39;;;;;;;9.77;5.90;;;0.90;99.90;;;;;;5012335;28;20174;-80
2023/03/08 02:32:05;;;;;;;6.50;5.03;;;0.90;99.90;;;;;;5012445;28;20182;-80
2023/03/08 02:34:31;;;;;;;9.70;5.60;;;0.90;99.90;;;;;;5013278;28;20269;-81
2023/03/08 02:36:56;;;;;;;10.10;5.87;;;0.90;99.90;;;;;;5012126;28;20640;-81
2023/03/08 02:39:22;;;;;;;6.57;5.30;;;0.90;99.90;;;;;;5011521;28;20189;-81
2023/03/08 02:41:48;;;;;;;6.60;5.10;;;0.90;99.90;;;;;;5012111;28;20188;-80
2023/03/08 02:44:13;;;;;;;7.33;5.20;;;0.90;99.90;;;;;;5022612;28;20625;-80
2023/03/08 02:46:39;;;;;;;9.00;5.17;;;0.90;99.90;;;;;;5029085;28;20226;-80
2023/03/08 02:49:04;;;;;;;7.00;5.27;;;0.90;99.90;;;;;;5029340;28;20183;-80
2023/03/08 02:51:30;;;;;;;6.60;5.10;;;0.90;99.90;;;;;;5012847;28;20180;-80
2023/03/08 02:53:56;;;;;;;7.20;5.30;;;0.90;99.90;;;;;;5013705;28;20553;-80
2023/03/08 02:56:21;;;;;;;8.83;5.17;;;0.90;99.90;;;;;;5010584;28;20194;-80
2023/03/08 02:58:47;;;;;;;8.10;5.07;;;0.90;99.90;;;;;;5013664;28;20244;-81
2023/03/08 03:01:13;;;;;;;6.57;4.70;;;0.90;99.90;;;;;;5012062;28;20183;-81
2023/03/08 03:03:40;;;;;;;8.33;4.60;;;0.90;99.90;;;;;;5011397;28;20365;-80
2023/03/08 03:06:16;;;;;;;7.33;4.00;;;0.90;99.90;;;;;;4999096;28;20215;-81
2023/03/08 03:08:42;;;;;;;6.83;4.30;;;0.90;99.90;;;;;;5013000;28;20263;-80
2023/03/08 03:11:19;;;;;;;5.97;3.70;;;0.90;99.90;;;;;;5426831;23;20341;-80
2023/03/08 03:13:46;;;;;;;7.70;4.60;;;0.90;99.90;;;;;;4993353;28;20247;-80
2023/03/08 03:16:14;;;;;;;6.27;4.00;;;0.90;99.90;;;;;;4993452;28;20263;-80
2023/03/08 03:18:41;;;;;;;4.30;3.87;;;0.90;99.90;;;;;;4988338;28;20188;-80
2023/03/08 03:21:12;;;;;;;8.40;3.90;;;0.90;99.90;;;;;;4989680;28;20247;-80
2023/03/08 03:23:39;;;;;;;8.57;4.50;;;1.00;99.90;;;;;;4989737;28;20264;-80
2023/03/08 03:26:11;;;;;;;6.63;3.83;;;0.90;99.90;;;;;;4988556;28;20216;-80
2023/03/08 03:28:37;;;;;;;6.03;4.23;;;0.90;99.90;;;;;;4973990;28;20191;-80
2023/03/08 03:31:09;;;;;;;5.97;3.93;;;0.90;99.90;;;;;;4989443;28;20521;-80
2023/03/08 03:33:34;;;;;;;5.37;3.53;;;0.90;99.90;;;;;;4989456;28;20270;-80
2023/03/08 03:36:01;;;;;;;6.40;3.90;;;0.90;99.90;;;;;;4989714;28;20689;-80
2023/03/08 03:38:26;;;;;;;6.63;3.97;;;0.90;99.90;;;;;;4973877;28;20524;-80
2023/03/08 03:41:02;;;;;;;7.23;4.03;;;0.80;99.90;;;;;;4989258;28;20173;-80
2023/03/08 03:43:27;;;;;;;5.90;3.50;;;0.80;99.90;;;;;;4992688;28;20270;-80
2023/03/08 03:46:02;;;;;;;9.03;4.00;;;0.80;99.90;;;;;;4992514;28;20297;-81
2023/03/08 03:48:29;;;;;;;7.10;3.60;;;0.80;99.90;;;;;;4992036;28;20524;-80
2023/03/08 03:51:00;;;;;;;5.57;3.83;;;0.80;99.90;;;;;;4993377;28;20656;-80
2023/03/08 03:53:31;;;;;;;5.00;3.93;;;0.80;99.90;;;;;;5008905;28;20223;-80
2023/03/08 03:56:05;;;;;;;9.83;3.77;;;0.80;99.90;;;;;;4992352;28;20180;-80
2023/03/08 03:58:31;;;;;;;6.77;3.70;;;0.80;99.90;;;;;;4993759;28;20499;-80
2023/03/08 04:00:57;;;;;;;7.80;3.70;;;0.80;99.90;;;;;;4992492;28;20195;-80
2023/03/08 04:03:22;;;;;;;9.13;4.00;;;0.80;99.90;;;;;;4991720;28;20271;-80
2023/03/08 04:05:48;;;;;;;6.53;3.87;;;0.80;99.90;;;;;;4991984;28;20578;-80
2023/03/08 04:08:14;;;;;;;6.37;3.60;;;0.80;99.90;;;;;;4993738;28;20523;-80
2023/03/08 04:10:39;;;;;;;5.10;4.07;;;0.70;99.90;;;;;;4992141;28;20669;-80
2023/03/08 04:13:05;;;;;;;5.77;4.43;;;0.70;99.90;;;;;;4992016;28;20226;-80
2023/03/08 04:15:31;;;;;;;5.13;4.10;;;0.70;99.90;;;;;;4992980;28;20255;-80
2023/03/08 04:17:56;;;;;;;5.63;3.87;;;0.80;99.90;;;;;;4992921;28;20622;-81
2023/03/08 04:20:23;;;;;;;9.57;4.20;;;0.70;99.90;;;;;;4992321;28;20553;-81
2023/03/08 04:22:48;;;;;;;7.77;4.10;;;0.80;99.90;;;;;;4992258;28;20695;-81
2023/03/08 04:25:14;;;;;;;7.80;4.20;;;0.80;99.90;;;;;;4992302;28;20300;-80
2023/03/08 04:27:40;;;;;;;8.33;3.90;;;0.70;99.90;;;;;;4991138;28;20626;-80
2023/03/08 04:30:06;;;;;;;7.67;4.33;;;0.70;99.90;;;;;;4993338;28;20182;-81
2023/03/08 04:32:32;;;;;;;5.50;4.00;;;0.70;99.90;;;;;;4997348;28;20319;-81
2023/03/08 04:34:57;;;;;;;8.33;3.70;;;0.70;99.90;;;;;;4995844;28;20697;-80
2023/03/08 04:37:24;;;;;;;6.07;3.53;;;0.70;99.90;;;;;;4995946;28;20181;-80
2023/03/08 04:39:50;;;;;;;10.40;3.93;;;0.60;99.90;;;;;;4994934;28;20287;-80
2023/03/08 04:42:15;;;;;;;6.60;3.87;;;0.50;99.90;;;;;;4994560;28;20740;-80
2023/03/08 04:44:41;;;;;;;7.33;3.90;;;0.50;99.90;;;;;;4980835;28;20216;-80
2023/03/08 04:47:07;;;;;;;4.83;3.97;;;0.50;99.90;;;;;;4992526;28;20215;-80
2023/03/08 04:49:32;;;;;;;5.10;4.10;;;0.50;99.90;;;;;;4992237;28;20179;-79
2023/03/08 04:51:58;;;;;;;4.47;3.87;;;0.40;99.90;;;;;;4976969;28;20300;-80
2023/03/08 04:54:24;;;;;;;7.60;4.10;;;0.40;99.90;;;;;;4991466;28;20285;-80
2023/03/08 04:56:49;;;;;;;7.70;4.20;;;0.40;99.90;;;;;;4975444;28;20238;-80
2023/03/08 04:59:15;;;;;;;6.63;4.27;;;0.40;99.90;;;;;;4992301;28;20192;-81
2023/03/08 05:01:41;;;;;;;6.93;4.43;;;0.40;99.90;;;;;;4992192;28;20199;-80
2023/03/08 05:04:10;;;;;;;6.67;3.87;;;0.30;99.90;;;;;;4975860;28;20219;-81
2023/03/08 05:06:36;;;;;;;6.53;4.73;;;0.30;99.90;;;;;;4991376;28;20230;-81
2023/03/08 05:09:02;;;;;;;6.70;4.50;;;0.30;99.90;;;;;;4976525;28;20184;-81
2023/03/08 05:11:28;;;;;;;5.27;4.43;;;0.30;99.90;;;;;;4997753;28;20270;-80
2023/03/08 05:13:56;;;;;;;5.87;4.00;;;0.30;99.90;;;;;;4995492;28;20664;-81
2023/03/08 05:16:22;;;;;;;6.30;4.10;;;0.30;99.90;;;;;;4995495;28;20191;-81
2023/03/08 05:18:49;;;;;;;6.07;4.40;;;0.30;99.90;;;;;;4995640;28;20249;-81
2023/03/08 05:21:17;;;;;;;7.37;4.00;;;0.20;99.90;;;;;;4996513;28;20260;-81
2023/03/08 05:23:43;;;;;;;6.47;4.37;;;0.30;99.90;;;;;;4995300;28;20183;-81
2023/03/08 05:26:11;;;;;;;5.40;4.27;;;0.30;99.90;;;;;;4995052;28;20212;-81
2023/03/08 05:28:36;;;;;;;8.03;5.00;;;0.20;99.90;;;;;;4995355;28;20585;-81
2023/03/08 05:31:11;;;;;;;8.37;4.77;;;0.20;99.90;;;;;;4995150;28;20207;-81
2023/03/08 05:33:37;;;;;;;6.73;4.23;;;0.30;99.90;;;;;;5011362;28;20242;-81
2023/03/08 05:36:05;;;;;;;7.00;4.47;;;0.20;99.90;;;;;;4995236;28;20204;-81
2023/03/08 05:38:31;;;;;;;6.93;4.60;;;0.20;99.90;;;;;;4996263;28;20281;-81
2023/03/08 05:41:05;;;;;;;6.40;4.53;;;0.20;99.90;;;;;;4994704;28;20192;-81
2023/03/08 05:43:32;;;;;;;8.63;4.87;;;0.20;99.90;;;;;;4994104;28;20191;-81
2023/03/08 05:46:01;;;;;;;8.83;5.27;;;0.10;99.90;;;;;;4994892;28;20209;-80
2023/03/08 05:48:26;;;;;;;10.10;4.73;;;0.10;99.90;;;;;;4996094;28;20233;-81
2023/03/08 05:50:52;;;;;;;7.53;4.97;;;0.10;99.90;;;;;;4995864;28;20180;-81
2023/03/08 05:53:18;;;;;;;8.73;5.03;;;0.10;99.90;;;;;;4994836;28;20181;-81
2023/03/08 05:55:44;;;;;;;9.40;5.50;;;0.10;99.90;;;;;;4996117;28;20684;-80
2023/03/08 05:58:10;;;;;;;8.37;5.03;;;0.10;99.90;;;;;;4994554;28;20176;-81
2023/03/08 06:00:35;;;;;;;9.70;5.87;;;0.10;99.90;;;;;;4994404;28;20211;-81
2023/03/08 06:03:03;;;;;;;10.63;5.47;;;0.10;99.90;;;;;;4995765;28;20199;-81
2023/03/08 06:05:31;;;;;;;10.77;5.73;;;0.10;99.90;;;;;;4994546;28;20254;-81
2023/03/08 06:07:57;;;;;;;8.83;5.90;;;0.20;99.90;;;;;;4994667;28;20176;-81
2023/03/08 06:10:23;;;;;;;9.27;6.20;;;0.20;99.90;;;;;;4994430;28;20183;-81
2023/03/08 06:12:49;;;;;;;9.87;6.50;;;0.20;99.90;;;;;;4993859;28;20230;-81
2023/03/08 06:15:15;;;;;;;10.03;6.10;;;0.20;99.90;;;;;;4995499;28;20255;-81
2023/03/08 06:17:41;;;;;;;8.17;5.83;;;0.20;99.90;;;;;;5010663;28;20191;-81
2023/03/08 06:20:08;;;;;;;11.43;6.17;;;0.20;99.90;;;;;;5010417;28;20175;-82
2023/03/08 06:22:33;;;;;;;12.23;6.70;;;0.20;99.90;;;;;;5010561;28;20679;-81
2023/03/08 06:24:59;;;;;;;10.07;6.10;;;0.30;99.90;;;;;;5010531;28;20222;-81
2023/03/08 06:27:25;;;;;;;8.27;6.20;;;0.30;99.90;;;;;;5010190;28;20230;-81
2023/03/08 06:29:51;;;;;;;10.63;6.40;;;0.30;99.90;;;;;;4995153;28;20176;-81
2023/03/08 06:32:17;;;;;;;9.63;5.93;;;0.40;99.90;;;;;;5010342;28;20183;-80
2023/03/08 06:34:43;;;;;;;9.30;5.77;;;0.40;99.90;;;;;;5010265;28;20179;-80
2023/03/08 06:37:09;;;;;;;7.57;5.47;;;0.40;99.90;;;;;;4995309;28;20171;-81
2023/03/08 06:39:35;;;;;;;9.93;6.73;;;0.40;99.90;;;;;;5010257;28;20178;-81
2023/03/08 06:42:02;;;;;;;11.97;6.93;;;0.40;99.90;;;;;;5009769;28;20201;-80
2023/03/08 06:44:28;;;;;;;14.47;7.50;;;0.40;99.90;;;;;;4995005;28;20176;-80
2023/03/08 06:46:54;;;;;;;13.33;7.53;;;0.40;99.90;;;;;;5010173;28;20220;-81
2023/03/08 06:49:20;;;;;;;12.97;7.30;;;0.50;99.90;;;;;;5009916;28;20218;-81
2023/03/08 06:51:46;;;;;;;10.03;6.50;;;0.50;99.90;;;;;;5010285;28;20183;-81
2023/03/08 06:54:16;;;;;;;10.87;6.30;;;0.50;99.90;;;;;;5009943;28;20179;-81
2023/03/08 06:56:43;;;;;;;12.67;7.67;;;0.50;99.90;;;;;;4994696;28;20164;-81
2023/03/08 06:59:09;;;;;;;12.57;7.80;;;0.50;99.90;;;;;;4993570;28;20214;-81
2023/03/08 07:01:35;;;;;;;11.00;6.70;;;0.50;99.90;;;;;;4994563;28;20194;-81
2023/03/08 07:04:00;;;;;;;11.10;6.67;;;0.50;99.90;;;;;;5009952;28;20182;-81
2023/03/08 07:06:26;;;;;;;12.07;7.43;;;0.60;99.90;;;;;;5009842;28;20228;-80
2023/03/08 07:08:51;;;;;;;9.67;6.80;;;0.60;99.90;;;;;;5009890;28;20182;-81
2023/03/08 07:11:17;;;;;;;10.77;6.70;;;0.60;99.90;;;;;;5009191;28;20273;-80
2023/03/08 07:13:43;;;;;;;12.93;6.83;;;0.70;99.90;;;;;;4993035;28;20615;-81
2023/03/08 07:16:11;;;;;;;10.03;6.93;;;0.70;99.90;;;;;;4993321;28;20183;-80
2023/03/08 07:18:37;;;;;;;10.17;6.37;;;0.80;99.90;;;;;;4994743;28;20599;-81
2023/03/08 07:21:03;;;;;;;9.57;6.63;;;0.80;99.90;;;;;;4993233;28;20190;-80
2023/03/08 07:23:28;;;;;;;9.17;6.60;;;0.80;99.90;;;;;;4994484;28;20184;-81
2023/03/08 07:25:54;;;;;;;11.30;6.27;;;0.80;99.90;;;;;;4993067;28;20215;-81
2023/03/08 07:28:20;;;;;;;10.70;6.50;;;0.90;99.90;;;;;;4992889;28;20668;-81
2023/03/08 07:30:47;;;;;;;9.43;5.73;;;0.90;99.90;;;;;;4994245;28;20187;-80
2023/03/08 07:33:13;;;;;;;9.83;5.77;;;0.90;99.90;;;;;;4993028;28;20183;-80
2023/03/08 07:35:39;;;;;;;9.10;5.90;;;1.00;99.90;;;;;;4993124;28;20603;-80
2023/03/08 07:38:05;;;;;;;10.53;6.23;;;1.00;99.90;;;;;;4993173;28;20181;-81
2023/03/08 07:40:30;;;;;;;10.97;6.40;;;1.00;99.90;;;;;;4992936;28;20188;-80
2023/03/08 07:42:56;;;;;;;9.87;6.17;;;1.00;99.90;;;;;;4992598;28;20524;-80
2023/03/08 07:45:22;;;;;;;10.57;6.83;;;1.10;99.90;;;;;;4994194;28;20203;-80
2023/03/08 07:47:51;;;;;;;14.57;6.30;;;1.10;99.90;;;;;;4994293;28;20191;-80
2023/03/08 07:50:18;;;;;;;12.10;6.97;;;1.10;99.90;;;;;;4992851;28;20723;-80
2023/03/08 07:52:44;;;;;;;8.87;5.87;;;1.10;99.90;;;;;;4992788;28;20215;-80
2023/03/08 07:55:10;;;;;;;8.23;6.03;;;1.10;99.90;;;;;;4992882;28;20219;-80
2023/03/08 07:57:36;;;;;;;9.30;6.33;;;1.20;99.90;;;;;;4993898;28;20263;-80
2023/03/08 08:00:06;;;;;;;8.23;6.13;;;1.30;99.90;;;;;;4992488;28;20677;-80
2023/03/08 08:02:32;;;;;;;10.53;6.43;;;1.30;99.90;;;;;;4991837;28;20176;-80
2023/03/08 08:04:59;;;;;;;12.63;6.00;;;1.30;99.90;;;;;;4993283;28;20298;-81
2023/03/08 08:07:25;;;;;;;12.33;6.80;;;1.30;99.90;;;;;;4995522;28;20607;-80
2023/03/08 08:09:50;;;;;;;11.13;5.93;;;1.40;99.90;;;;;;5003569;28;20183;-80
2023/03/08 08:12:16;;;;;;;10.70;7.30;;;1.40;99.90;;;;;;4994201;28;20315;-80
2023/03/08 08:14:42;;;;;;;11.73;7.50;;;1.50;99.90;;;;;;4990257;28;20223;-80
2023/03/08 08:17:08;;;;;;;10.00;6.37;;;1.50;99.90;;;;;;4978522;28;20211;-80
2023/03/08 08:19:33;;;;;;;17.50;7.53;;;1.50;99.90;;;;;;4978310;28;20576;-79
2023/03/08 08:21:59;;;;;;;11.87;8.43;;;1.60;99.90;;;;;;4978226;28;20180;-79
2023/03/08 08:24:26;;;;;;;10.43;7.57;;;1.60;99.90;;;;;;4981955;28;20263;-79
2023/03/08 08:26:51;;;;;;;12.73;8.50;;;1.70;99.90;;;;;;4997141;28;20174;-79
2023/03/08 08:29:17;;;;;;;11.77;8.00;;;1.70;99.90;;;;;;4978027;28;20521;-79
2023/03/08 08:31:43;;;;;;;13.77;8.87;;;1.80;99.90;;;;;;4995027;28;20185;-79
2023/03/08 08:34:09;;;;;;;14.47;8.97;;;1.80;99.90;;;;;;4997265;28;20183;-79
2023/03/08 08:36:35;;;;;;;15.17;8.40;;;1.90;99.90;;;;;;4979363;28;20216;-79
2023/03/08 08:39:00;;;;;;;11.87;7.87;;;1.90;99.90;;;;;;4978013;28;20211;-80
2023/03/08 08:41:28;;;;;;;12.63;8.47;;;2.00;99.90;;;;;;4982540;28;20195;-78
2023/03/08 08:43:57;;;;;;;15.93;8.83;;;2.00;99.90;;;;;;4995919;28;20528;-78
2023/03/08 08:46:24;;;;;;;12.97;7.83;;;2.10;99.90;;;;;;4996054;28;20269;-79
2023/03/08 08:48:49;;;;;;;13.63;7.97;;;2.20;99.90;;;;;;4997510;28;20179;-79
2023/03/08 08:51:15;;;;;;;13.43;7.77;;;2.10;99.90;;;;;;4997049;28;20183;-78
2023/03/08 08:53:42;;;;;;;10.37;6.80;;;2.20;99.90;;;;;;4997155;28;20176;-79
2023/03/08 08:56:25;;;;;;;12.47;7.50;;;2.20;99.90;;;;;;4995769;28;20195;-79
2023/03/08 08:58:51;;;;;;;9.63;6.57;;;2.30;99.90;;;;;;4995878;28;20339;-79
2023/03/08 09:01:25;;;;;;;12.53;6.87;;;2.30;99.90;;;;;;4995436;28;20643;-79
2023/03/08 09:03:51;;;;;;;9.80;6.80;;;2.40;99.90;;;;;;4995811;28;20198;-79
2023/03/08 09:06:18;;;;;;;10.23;6.63;;;2.40;99.90;;;;;;4996859;28;20215;-79
2023/03/08 09:08:49;;;;;;;10.93;6.63;;;2.40;99.90;;;;;;4994759;28;20778;-79
2023/03/08 09:11:15;;;;;;;11.20;6.40;;;2.40;99.90;;;;;;4996570;28;20231;-79
2023/03/08 09:13:41;;;;;;;10.03;6.70;;;2.40;99.90;;;;;;4996648;28;20166;-80
2023/03/08 09:16:25;;;;;;;9.80;6.80;;;2.30;99.90;;;;;;4995100;28;20592;-79
2023/03/08 09:18:52;;;;;;;10.40;6.97;;;2.30;99.90;;;;;;4996426;28;20266;-80
2023/03/08 09:21:18;;;;;;;8.93;5.83;;;2.30;99.90;;;;;;4995213;28;20190;-78
2023/03/08 09:23:44;;;;;;;11.03;7.40;;;2.30;99.90;;;;;;4996722;28;20615;-79
2023/03/08 09:26:10;;;;;;;9.80;7.00;;;2.30;99.90;;;;;;4995315;28;20211;-80
2023/03/08 09:28:36;;;;;;;15.97;7.30;;;2.30;99.90;;;;;;4995004;28;20242;-79
2023/03/08 09:31:13;;;;;;;11.43;7.87;;;2.30;99.90;;;;;;4996224;28;20175;-79
2023/03/08 09:33:41;;;;;;;12.10;7.67;;;2.40;99.90;;;;;;4995089;28;20191;-79
2023/03/08 09:36:07;;;;;;;11.30;7.30;;;2.40;99.90;;;;;;4994416;28;20563;-79
2023/03/08 09:38:33;;;;;;;13.90;7.63;;;2.40;99.90;;;;;;4996469;28;20255;-79
2023/03/08 09:41:17;;;;;;;14.50;7.73;;;2.50;99.90;;;;;;5011163;28;20270;-79
2023/03/08 09:43:55;;;;;;;12.13;7.30;;;2.50;99.90;;;;;;4996073;28;20161;-79
2023/03/08 09:46:29;;;;;;;11.70;7.43;;;2.50;99.90;;;;;;4996095;28;20266;-79
2023/03/08 09:48:59;;;;;;;9.80;6.50;;;2.60;99.90;;;;;;4996305;28;20242;-78
2023/03/08 09:51:32;;;;;;;12.00;7.33;;;2.60;99.90;;;;;;4996041;28;20164;-79
2023/03/08 09:54:06;;;;;;;13.00;7.33;;;2.80;99.90;;;;;;4994893;28;20673;-79
2023/03/08 09:56:52;;;;;;;15.77;7.73;;;2.80;99.90;;;;;;4996068;28;20198;-78
2023/03/08 09:59:39;;;;;;;14.13;8.17;;;2.80;99.90;;;;;;4996391;28;20478;-79
2023/03/08 10:02:44;;;;;;;11.13;7.50;;;2.80;99.90;;;;;;4995972;28;20174;-79
2023/03/08 10:05:19;;;;;;;11.07;7.30;;;2.90;99.90;;;;;;4995776;28;20234;-79
2023/03/08 10:08:10;;;;;;;12.90;7.87;;;2.90;99.90;;;;;;4994639;28;20168;-79
2023/03/08 10:10:40;;;;;;;10.73;7.60;;;2.90;99.90;;;;;;4995694;28;20173;-78
2023/03/08 10:13:26;;;;;;;11.87;7.73;;;2.90;99.90;;;;;;4995337;28;20176;-79
2023/03/08 10:15:57;;;;;;;13.17;8.50;;;2.90;99.90;;;;;;4995792;28;20591;-79
2023/03/08 10:18:50;;;;;;;14.10;7.83;;;2.90;99.90;;;;;;4995715;28;20160;-78
2023/03/08 10:21:19;;;;;;;11.43;7.13;;;3.00;99.90;;;;;;4994172;28;20230;-78
2023/03/08 10:23:51;;;;;;;16.50;7.83;;;3.00;99.90;;;;;;4995467;28;20259;-78
2023/03/08 10:26:17;;;;;;;11.73;7.30;;;3.10;99.90;;;;;;4995461;28;20211;-79
2023/03/08 10:28:43;;;;;;;13.07;8.63;;;3.10;99.90;;;;;;4994838;28;20247;-78
2023/03/08 10:31:30;;;;;;;11.00;7.73;;;3.10;99.90;;;;;;4995233;28;20263;-78
2023/03/08 10:34:04;;;;;;;10.73;7.83;;;3.10;99.90;;;;;;4995264;28;20214;-79
2023/03/08 10:36:30;;;;;;;13.87;8.57;;;3.20;99.90;;;;;;4995320;28;20247;-78
2023/03/08 10:39:09;;;;;;;11.50;7.73;;;3.10;99.90;;;;;;4995320;28;20251;-78
2023/03/08 10:41:50;;;;;;;15.43;8.97;;;3.10;99.90;;;;;;4993797;28;20222;-77
2023/03/08 10:44:53;;;;;;;12.50;8.07;;;3.10;99.90;;;;;;4993580;28;20638;-78
2023/03/08 10:47:23;;;;;;;12.53;8.23;;;3.20;99.90;;;;;;4995235;28;20172;-78
2023/03/08 10:50:02;;;;;;;11.43;8.07;;;3.20;99.90;;;;;;4994902;28;20175;-78
2023/03/08 10:52:28;;;;;;;12.23;7.70;;;3.20;99.90;;;;;;4994949;28;20198;-78
2023/03/08 10:55:13;;;;;;;13.67;8.23;;;3.20;99.90;;;;;;4994220;28;20615;-77
2023/03/08 10:57:41;;;;;;;11.93;8.00;;;3.20;99.90;;;;;;4994421;28;20180;-78
2023/03/08 11:00:23;;;;;;;10.63;7.67;;;3.20;99.90;;;;;;4994687;28;20622;-79
2023/03/08 11:02:49;;;;;;;11.43;7.33;;;3.30;99.90;;;;;;4985493;28;20183;-79
2023/03/08 11:05:21;;;;;;;10.23;7.03;;;3.30;99.90;;;;;;4978151;28;20274;-78
2023/03/08 11:07:54;;;;;;;11.63;7.33;;;3.30;99.90;;;;;;4984887;28;21018;-79
2023/03/08 11:10:25;;;;;;;12.50;7.40;;;3.40;99.90;;;;;;4993214;28;20176;-79
2023/03/08 11:13:25;;;;;;;9.97;7.47;;;3.40;99.90;;;;;;4977001;28;20228;-79
2023/03/08 11:16:05;;;;;;;9.13;6.33;;;3.50;99.90;;;;;;4975214;28;20164;-79
2023/03/08 11:19:03;;;;;;;8.90;5.20;;;3.50;99.90;;;;;;4974011;28;20279;-79
2023/03/08 11:22:07;;;;;;;10.60;6.90;;;3.50;99.90;;;;;;4974979;28;20234;-78
2023/03/08 11:25:04;;;;;;;9.67;6.30;;;3.40;99.90;;;;;;4964297;28;20199;-78
2023/03/08 11:27:54;;;;;;;10.60;6.40;;;3.50;99.90;;;;;;4974753;28;20173;-78
2023/03/08 11:30:26;;;;;;;11.70;6.60;;;3.40;99.90;;;;;;4973556;28;20175;-79
2023/03/08 11:33:24;;;;;;;9.50;6.63;;;3.40;99.90;;;;;;4989887;28;20173;-79
2023/03/08 11:36:30;;;;;;;10.13;6.50;;;3.30;99.90;;;;;;4974956;28;20176;-79
2023/03/08 11:39:07;;;;;;;12.23;6.60;;;3.30;99.90;;;;;;4971721;28;20721;-78
2023/03/08 11:41:43;;;;;;;9.60;5.90;;;3.40;99.90;;;;;;4981162;28;20180;-78
2023/03/08 11:44:36;;;;;;;11.13;6.23;;;3.50;99.90;;;;;;4994050;28;20517;-78
2023/03/08 11:47:22;;;;;;;6.93;5.03;;;3.50;99.90;;;;;;4986514;28;20184;-78
2023/03/08 11:50:19;;;;;;;9.00;4.80;;;3.50;99.90;;;;;;4966314;28;20188;-78
2023/03/08 11:53:11;;;;;;;7.33;5.00;;;3.60;99.90;;;;;;4974700;28;20216;-78
2023/03/08 11:55:48;;;;;;;6.27;5.07;;;3.60;99.90;;;;;;4970889;28;20347;-78
2023/03/08 11:58:45;;;;;;;8.27;5.43;;;3.60;99.90;;;;;;4994070;28;20509;-78
2023/03/08 12:01:37;;;;;;;12.00;6.47;;;3.60;99.90;;;;;;4993687;28;20195;-79
2023/03/08 12:04:10;;;;;;;10.20;6.77;;;3.60;99.90;;;;;;4992892;28;20172;-80
2023/03/08 12:06:42;;;;;;;12.53;7.13;;;3.60;99.90;;;;;;4994046;28;20211;-79
2023/03/08 12:09:21;;;;;;;11.07;6.90;;;3.60;99.90;;;;;;4992705;28;20172;-78
2023/03/08 12:11:55;;;;;;;7.77;5.47;;;3.60;99.90;;;;;;4993780;28;20281;-78
2023/03/08 12:14:27;;;;;;;8.20;4.87;;;3.60;99.90;;;;;;4993740;28;20207;-78
2023/03/08 12:17:23;;;;;;;3.10;2.20;;;3.60;99.90;;;;;;4992855;28;20168;-79
2023/03/08 12:19:50;;;;;;;5.23;2.87;;;3.60;99.90;;;;;;4993475;28;20227;-78
2023/03/08 12:22:38;;;;;;;2.83;2.40;;;3.60;99.90;;;;;;4989096;28;20176;-78
2023/03/08 12:25:24;;;;;;;3.50;2.10;;;3.50;99.90;;;;;;4981489;28;21155;-79
2023/03/08 12:28:24;;;;;;;3.00;1.83;;;3.30;99.90;;;;;;4974250;28;20168;-78
2023/03/08 12:31:07;;;;;;;1.00;0.90;;;3.30;99.90;;;;;;4974638;28;20158;-78
2023/03/08 12:33:33;;;;;;;1.87;0.90;;;3.10;99.90;;;;;;4974428;28;20223;-79
2023/03/08 12:36:04;;;;;;;1.10;0.80;;;3.00;99.90;;;;;;4976589;28;20172;-78
2023/03/08 12:38:39;;;;;;;2.70;1.27;;;3.00;99.90;;;;;;4974283;28;20177;-78
2023/03/08 12:41:23;;;;;;;5.27;2.57;;;2.90;99.90;;;;;;4974257;28;20266;-79
2023/03/08 12:44:21;;;;;;;5.03;2.80;;;2.70;99.90;;;;;;4974187;28;20165;-78
2023/03/08 12:46:49;;;;;;;3.77;2.60;;;2.40;99.90;;;;;;4974271;28;20205;-78
2023/03/08 12:49:34;;;;;;;3.63;2.70;;;2.30;99.90;;;;;;4977802;28;20284;-79
2023/03/08 12:52:05;;;;;;;4.43;3.20;;;2.30;99.90;;;;;;4993893;28;20674;-79
2023/03/08 12:54:34;;;;;;;4.23;2.73;;;2.40;99.90;;;;;;4981266;28;20211;-78
2023/03/08 12:57:12;;;;;;;5.03;3.20;;;2.40;99.90;;;;;;4993575;28;20198;-78
2023/03/08 12:59:40;;;;;;;8.07;3.57;;;2.50;99.90;;;;;;4977035;28;20247;-78
2023/03/08 13:02:27;;;;;;;7.50;4.00;;;2.50;99.90;;;;;;4983664;28;20188;-79
2023/03/08 13:05:17;;;;;;;6.97;4.13;;;2.50;99.90;;;;;;4979191;28;20243;-79
2023/03/08 13:08:12;;;;;;;9.23;4.03;;;2.60;99.90;;;;;;4977448;28;20177;-79
2023/03/08 13:10:48;;;;;;;6.53;4.03;;;2.60;99.90;;;;;;4972286;28;20503;-78